Time,TemperatureF,DewpointF,PressureIn,WindDirection,WindDirectionDegrees,WindSpeedMPH,WindSpeedGustMPH,Humidity,HourlyPrecipIn,Conditions,Clouds,dailyrainin,SoftwareType,DateUTC
2013-08-16 00:12:00,61.9,60.0,29.90,North,11,0.0,-999.0,94,-99.99,,,0.00,weatherlink.com 1.10,2013-08-16 07:12:00,
2013-08-16 00:27:00,61.6,60.0,29.90,North,355,2.0,-999.0,95,-99.99,,,0.00,weatherlink.com 1.10,2013-08-16 07:27:00,
2013-08-16 00:42:00,61.5,60.0,29.90,NNW,348,1.0,-999.0,95,-99.99,,,0.00,weatherlink.com 1.10,2013-08-16 07:42:00,
2013-08-16 00:56:00,61.3,60.0,29.90,NNW,342,0.0,-999.0,95,-99.99,,,0.00,weatherlink.com 1.10,2013-08-16 07:56:00,
2013-08-16 01:11:00,60.7,59.0,29.89,NW,323,3.0,-999.0,94,-99.99,,,0.00,weatherlink.com 1.10,2013-08-16 08:11:00,
2013-08-16 01:28:00,60.8,59.0,29.89,North,355,0.0,-999.0,95,-99.99,,,0.00,weatherlink.com 1.10,2013-08-16 08:28:00,
2013-08-16 01:42:00,61.3,60.0,29.89,North,360,0.0,-999.0,95,-99.99,,,0.00,weatherlink.com 1.10,2013-08-16 08:42:00,
2013-08-16 01:56:00,61.6,60.0,29.88,North,360,0.0,-999.0,95,-99.99,,,0.00,weatherlink.com 1.10,2013-08-16 08:56:00,
2013-08-16 02:12:00,61.7,60.0,29.87,NNW,346,1.0,-999.0,95,-99.99,,,0.00,weatherlink.com 1.10,2013-08-16 09:12:00,
2013-08-16 02:27:00,61.6,60.0,29.87,NNW,346,0.0,-999.0,95,-99.99,,,0.00,weatherlink.com 1.10,2013-08-16 09:27:00,
2013-08-16 02:41:00,61.3,60.0,29.87,NNW,346,0.0,-999.0,95,-99.99,,,0.00,weatherlink.com 1.10,2013-08-16 09:41:00,
2013-08-16 02:56:00,60.8,59.0,29.87,NNW,346,0.0,-999.0,95,-99.99,,,0.00,weatherlink.com 1.10,2013-08-16 09:56:00,
2013-08-16 03:12:00,60.5,59.0,29.88,NNW,346,1.0,-999.0,95,-99.99,,,0.00,weatherlink.com 1.10,2013-08-16 10:12:00,
2013-08-16 03:26:00,60.5,59.0,29.88,NNW,346,1.0,-999.0,95,-99.99,,,0.00,weatherlink.com 1.10,2013-08-16 10:26:00,
2013-08-16 03:42:00,60.9,60.0,29.89,North,355,1.0,-999.0,95,-99.99,,,0.00,weatherlink.com 1.10,2013-08-16 10:42:00,
2013-08-16 03:56:00,60.9,60.0,29.89,NNW,342,3.0,-999.0,95,-99.99,,,0.00,weatherlink.com 1.10,2013-08-16 10:56:00,
2013-08-16 04:11:00,61.0,60.0,29.89,NNW,348,9.0,-999.0,95,-99.99,,,0.00,weatherlink.com 1.10,2013-08-16 11:11:00,
2013-08-16 04:26:00,60.9,60.0,29.89,North,360,8.0,-999.0,95,-99.99,,,0.00,weatherlink.com 1.10,2013-08-16 11:26:00,
2013-08-16 04:42:00,61.1,60.0,29.89,North,349,2.0,-999.0,96,-99.99,,,0.00,weatherlink.com 1.10,2013-08-16 11:42:00,
2013-08-16 04:57:00,60.4,59.0,29.89,North,11,6.0,-999.0,95,-99.99,,,0.00,weatherlink.com 1.10,2013-08-16 11:57:00,
2013-08-16 05:11:00,60.3,59.0,29.90,NNE,24,1.0,-999.0,95,-99.99,,,0.00,weatherlink.com 1.10,2013-08-16 12:11:00,
2013-08-16 05:28:00,60.2,59.0,29.90,NNW,331,5.0,-999.0,95,-99.99,,,0.00,weatherlink.com 1.10,2013-08-16 12:28:00,
2013-08-16 05:42:00,60.2,59.0,29.90,North,360,8.0,-999.0,95,-99.99,,,0.00,weatherlink.com 1.10,2013-08-16 12:42:00,
2013-08-16 05:57:00,60.4,59.0,29.90,NNE,22,1.0,-999.0,96,-99.99,,,0.00,weatherlink.com 1.10,2013-08-16 12:57:00,
2013-08-16 06:11:00,60.1,59.0,29.90,North,360,5.0,-999.0,95,-99.99,,,0.00,weatherlink.com 1.10,2013-08-16 13:11:00,
2013-08-16 06:27:00,59.1,58.0,29.91,NNE,16,3.0,-999.0,95,-99.99,,,0.00,weatherlink.com 1.10,2013-08-16 13:27:00,
2013-08-16 06:42:00,59.1,58.0,29.91,North,5,1.0,-999.0,96,-99.99,,,0.00,weatherlink.com 1.10,2013-08-16 13:42:00,
2013-08-16 06:57:00,59.1,58.0,29.91,North,355,6.0,-999.0,96,-99.99,,,0.00,weatherlink.com 1.10,2013-08-16 13:57:00,
2013-08-16 07:12:00,59.2,58.0,29.91,NNW,336,6.0,-999.0,96,-99.99,,,0.00,weatherlink.com 1.10,2013-08-16 14:12:00,
2013-08-16 07:26:00,59.6,59.0,29.92,NNE,15,8.0,-999.0,96,-99.99,,,0.00,weatherlink.com 1.10,2013-08-16 14:26:00,
2013-08-16 07:42:00,59.4,58.0,29.92,NNW,348,6.0,-999.0,96,-99.99,,,0.00,weatherlink.com 1.10,2013-08-16 14:42:00,
2013-08-16 07:57:00,59.7,59.0,29.92,NE,51,3.0,-999.0,96,-99.99,,,0.00,weatherlink.com 1.10,2013-08-16 14:57:00,
2013-08-16 08:12:00,59.7,59.0,29.92,NNW,342,3.0,-999.0,96,-99.99,,,0.00,weatherlink.com 1.10,2013-08-16 15:12:00,
2013-08-16 08:27:00,60.0,59.0,29.93,NW,326,7.0,-999.0,96,-99.99,,,0.00,weatherlink.com 1.10,2013-08-16 15:27:00,
2013-08-16 08:42:00,59.6,59.0,29.93,North,360,7.0,-999.0,96,-99.99,,,0.00,weatherlink.com 1.10,2013-08-16 15:42:00,
2013-08-16 08:57:00,60.0,59.0,29.93,NNE,14,3.0,-999.0,96,-99.99,,,0.00,weatherlink.com 1.10,2013-08-16 15:57:00,
2013-08-16 09:12:00,60.2,59.0,29.93,NNW,338,9.0,-999.0,96,-99.99,,,0.00,weatherlink.com 1.10,2013-08-16 16:12:00,
2013-08-16 09:26:00,60.4,59.0,29.93,NNW,335,9.0,-999.0,95,-99.99,,,0.00,weatherlink.com 1.10,2013-08-16 16:26:00,
2013-08-16 09:41:00,60.9,59.0,29.94,North,351,2.0,-999.0,94,-99.99,,,0.00,weatherlink.com 1.10,2013-08-16 16:41:00,
2013-08-16 09:56:00,61.2,59.0,29.93,NW,313,11.0,-999.0,93,-99.99,,,0.00,weatherlink.com 1.10,2013-08-16 16:56:00,
2013-08-16 10:11:00,62.5,60.0,29.94,ENE,62,6.0,-999.0,92,-99.99,,,0.00,weatherlink.com 1.10,2013-08-16 17:11:00,
2013-08-16 10:26:00,63.3,60.0,29.94,NNW,329,7.0,-999.0,90,-99.99,,,0.00,weatherlink.com 1.10,2013-08-16 17:26:00,
2013-08-16 10:42:00,63.1,60.0,29.95,NW,315,15.0,-999.0,89,-99.99,,,0.00,weatherlink.com 1.10,2013-08-16 17:42:00,
2013-08-16 10:56:00,63.9,60.0,29.95,NW,326,9.0,-999.0,88,-99.99,,,0.00,weatherlink.com 1.10,2013-08-16 17:56:00,
2013-08-16 11:12:00,65.1,61.0,29.95,NW,321,8.0,-999.0,87,-99.99,,,0.00,weatherlink.com 1.10,2013-08-16 18:12:00,
2013-08-16 11:27:00,65.6,61.0,29.96,NE,39,3.0,-999.0,85,-99.99,,,0.00,weatherlink.com 1.10,2013-08-16 18:27:00,
2013-08-16 11:41:00,66.7,61.0,29.96,North,5,8.0,-999.0,82,-99.99,,,0.00,weatherlink.com 1.10,2013-08-16 18:41:00,
2013-08-16 11:56:00,66.3,61.0,29.97,North,355,14.0,-999.0,83,-99.99,,,0.00,weatherlink.com 1.10,2013-08-16 18:56:00,
2013-08-16 12:13:00,65.6,60.0,29.97,NNW,345,5.0,-999.0,83,-99.99,,,0.00,weatherlink.com 1.10,2013-08-16 19:13:00,
2013-08-16 12:26:00,65.6,61.0,29.97,North,9,10.0,-999.0,85,-99.99,,,0.00,weatherlink.com 1.10,2013-08-16 19:26:00,
2013-08-16 12:43:00,65.1,61.0,29.97,NW,323,8.0,-999.0,87,-99.99,,,0.00,weatherlink.com 1.10,2013-08-16 19:43:00,
2013-08-16 12:56:00,64.8,61.0,29.97,NW,323,12.0,-999.0,86,-99.99,,,0.00,weatherlink.com 1.10,2013-08-16 19:56:00,
2013-08-16 13:12:00,64.6,61.0,29.97,NNW,338,7.0,-999.0,87,-99.99,,,0.00,weatherlink.com 1.10,2013-08-16 20:12:00,
2013-08-16 13:28:00,65.7,62.0,29.97,North,350,12.0,-999.0,86,-99.99,,,0.00,weatherlink.com 1.10,2013-08-16 20:28:00,
2013-08-16 13:43:00,65.5,61.0,29.97,North,360,7.0,-999.0,86,-99.99,,,0.00,weatherlink.com 1.10,2013-08-16 20:43:00,
2013-08-16 13:56:00,65.6,61.0,29.96,NW,325,12.0,-999.0,85,-99.99,,,0.00,weatherlink.com 1.10,2013-08-16 20:56:00,
2013-08-16 14:12:00,66.5,62.0,29.97,WNW,300,9.0,-999.0,84,-99.99,,,0.00,weatherlink.com 1.10,2013-08-16 21:12:00,
2013-08-16 14:26:00,66.8,61.0,29.96,NE,55,6.0,-999.0,82,-99.99,,,0.00,weatherlink.com 1.10,2013-08-16 21:26:00,
2013-08-16 14:42:00,66.0,61.0,29.96,North,10,8.0,-999.0,84,-99.99,,,0.00,weatherlink.com 1.10,2013-08-16 21:42:00,
2013-08-16 14:56:00,66.1,61.0,29.96,NNE,30,7.0,-999.0,84,-99.99,,,0.00,weatherlink.com 1.10,2013-08-16 21:56:00,
2013-08-16 15:12:00,66.4,61.0,29.96,North,5,3.0,-999.0,83,-99.99,,,0.00,weatherlink.com 1.10,2013-08-16 22:12:00,
2013-08-16 15:27:00,66.9,61.0,29.95,NW,313,13.0,-999.0,81,-99.99,,,0.00,weatherlink.com 1.10,2013-08-16 22:27:00,
2013-08-16 15:42:00,64.0,60.0,29.95,NW,321,11.0,-999.0,85,-99.99,,,0.00,weatherlink.com 1.10,2013-08-16 22:42:00,
2013-08-16 15:56:00,64.1,60.0,29.95,NNW,340,6.0,-999.0,85,-99.99,,,0.00,weatherlink.com 1.10,2013-08-16 22:56:00,
2013-08-16 16:12:00,64.4,60.0,29.95,North,350,7.0,-999.0,84,-99.99,,,0.00,weatherlink.com 1.10,2013-08-16 23:12:00,
2013-08-16 16:27:00,63.7,59.0,29.95,North,355,11.0,-999.0,83,-99.99,,,0.00,weatherlink.com 1.10,2013-08-16 23:27:00,
2013-08-16 16:42:00,63.1,58.0,29.95,North,355,5.0,-999.0,84,-99.99,,,0.00,weatherlink.com 1.10,2013-08-16 23:42:00,
2013-08-16 16:57:00,62.1,58.0,29.95,North,355,10.0,-999.0,85,-99.99,,,0.00,weatherlink.com 1.10,2013-08-16 23:57:00,
2013-08-16 17:11:00,62.1,58.0,29.95,NNW,343,5.0,-999.0,86,-99.99,,,0.00,weatherlink.com 1.10,2013-08-17 00:11:00,
2013-08-16 17:26:00,62.3,58.0,29.95,NNW,335,15.0,-999.0,86,-99.99,,,0.00,weatherlink.com 1.10,2013-08-17 00:26:00,
2013-08-16 17:42:00,61.6,58.0,29.95,NNW,348,9.0,-999.0,88,-99.99,,,0.00,weatherlink.com 1.10,2013-08-17 00:42:00,
2013-08-16 17:56:00,61.3,58.0,29.94,North,360,9.0,-999.0,89,-99.99,,,0.00,weatherlink.com 1.10,2013-08-17 00:56:00,
2013-08-16 18:12:00,61.1,58.0,29.94,North,360,11.0,-999.0,89,-99.99,,,0.00,weatherlink.com 1.10,2013-08-17 01:12:00,
2013-08-16 18:27:00,61.0,58.0,29.93,NW,307,13.0,-999.0,90,-99.99,,,0.00,weatherlink.com 1.10,2013-08-17 01:27:00,
2013-08-16 18:42:00,61.1,58.0,29.93,NNE,29,4.0,-999.0,90,-99.99,,,0.00,weatherlink.com 1.10,2013-08-17 01:42:00,
2013-08-16 18:57:00,61.0,58.0,29.94,North,349,11.0,-999.0,89,-99.99,,,0.00,weatherlink.com 1.10,2013-08-17 01:57:00,
2013-08-16 19:12:00,60.7,58.0,29.93,North,5,10.0,-999.0,90,-99.99,,,0.00,weatherlink.com 1.10,2013-08-17 02:12:00,
2013-08-16 19:27:00,60.7,58.0,29.93,North,9,4.0,-999.0,90,-99.99,,,0.00,weatherlink.com 1.10,2013-08-17 02:27:00,
2013-08-16 19:41:00,60.5,57.0,29.94,NE,40,6.0,-999.0,89,-99.99,,,0.00,weatherlink.com 1.10,2013-08-17 02:41:00,
2013-08-16 19:57:00,59.8,57.0,29.94,North,355,7.0,-999.0,89,-99.99,,,0.00,weatherlink.com 1.10,2013-08-17 02:57:00,
2013-08-16 20:13:00,59.3,56.0,29.94,North,5,7.0,-999.0,89,-99.99,,,0.00,weatherlink.com 1.10,2013-08-17 03:13:00,
2013-08-16 20:26:00,59.0,56.0,29.94,NNE,30,8.0,-999.0,90,-99.99,,,0.00,weatherlink.com 1.10,2013-08-17 03:26:00,
2013-08-16 20:41:00,58.7,56.0,29.95,NNE,13,1.0,-999.0,90,-99.99,,,0.00,weatherlink.com 1.10,2013-08-17 03:41:00,
2013-08-16 20:56:00,58.6,55.0,29.95,NNE,17,2.0,-999.0,89,-99.99,,,0.00,weatherlink.com 1.10,2013-08-17 03:56:00,
2013-08-16 21:12:00,58.7,56.0,29.95,NNE,17,3.0,-999.0,89,-99.99,,,0.00,weatherlink.com 1.10,2013-08-17 04:12:00,
2013-08-16 21:27:00,58.9,56.0,29.95,North,360,4.0,-999.0,89,-99.99,,,0.00,weatherlink.com 1.10,2013-08-17 04:27:00,
2013-08-16 21:42:00,58.9,55.0,29.96,NNE,30,5.0,-999.0,88,-99.99,,,0.00,weatherlink.com 1.10,2013-08-17 04:42:00,
2013-08-16 21:58:00,59.1,56.0,29.96,NNE,15,3.0,-999.0,88,-99.99,,,0.00,weatherlink.com 1.10,2013-08-17 04:58:00,
2013-08-16 22:13:00,59.6,56.0,29.96,NE,41,7.0,-999.0,87,-99.99,,,0.00,weatherlink.com 1.10,2013-08-17 05:13:00,
2013-08-16 22:27:00,60.0,56.0,29.95,NNE,33,3.0,-999.0,87,-99.99,,,0.00,weatherlink.com 1.10,2013-08-17 05:27:00,
2013-08-16 22:41:00,60.2,56.0,29.95,NNW,344,5.0,-999.0,87,-99.99,,,0.00,weatherlink.com 1.10,2013-08-17 05:41:00,
2013-08-16 22:58:00,60.0,56.0,29.95,NNE,27,1.0,-999.0,86,-99.99,,,0.00,weatherlink.com 1.10,2013-08-17 05:58:00,
2013-08-16 23:12:00,59.5,56.0,29.95,North,5,3.0,-999.0,87,-99.99,,,0.00,weatherlink.com 1.10,2013-08-17 06:12:00,
2013-08-16 23:27:00,59.6,56.0,29.95,North,11,3.0,-999.0,87,-99.99,,,0.00,weatherlink.com 1.10,2013-08-17 06:27:00,
2013-08-16 23:42:00,60.4,57.0,29.95,NE,39,6.0,-999.0,87,-99.99,,,0.00,weatherlink.com 1.10,2013-08-17 06:42:00,
2013-08-16 23:56:00,60.6,56.0,29.94,North,355,4.0,-999.0,86,-99.99,,,0.00,weatherlink.com 1.10,2013-08-17 06:56:00,